sensor_id;sensor_type;location;lat;lon;timestamp;temperature;humidity
29413;DHT22;16389;50.126;8.450;2023-04-15T00:01:34;4.70;99.90
29413;DHT22;16389;50.126;8.450;2023-04-15T00:04:01;4.60;99.90
29413;DHT22;16389;50.126;8.450;2023-04-15T00:06:27;4.60;99.90
29413;DHT22;16389;50.126;8.450;2023-04-15T00:08:52;4.60;99.90
29413;DHT22;16389;50.126;8.450;2023-04-15T00:11:18;4.60;99.90
29413;DHT22;16389;50.126;8.450;2023-04-15T00:13:44;4.60;99.90
29413;DHT22;16389;50.126;8.450;2023-04-15T00:16:10;4.60;99.90
29413;DHT22;16389;50.126;8.450;2023-04-15T00:18:37;4.60;99.90
29413;DHT22;16389;50.126;8.450;2023-04-15T00:21:03;4.60;99.90
29413;DHT22;16389;50.126;8.450;2023-04-15T00:23:29;4.70;99.90
29413;DHT22;16389;50.126;8.450;2023-04-15T00:25:55;4.60;99.90
29413;DHT22;16389;50.126;8.450;2023-04-15T00:28:21;4.60;99.90
29413;DHT22;16389;50.126;8.450;2023-04-15T00:30:47;4.70;99.90
29413;DHT22;16389;50.126;8.450;2023-04-15T00:33:13;4.60;99.90
29413;DHT22;16389;50.126;8.450;2023-04-15T00:35:39;4.70;99.90
29413;DHT22;16389;50.126;8.450;2023-04-15T00:38:05;4.60;99.90
29413;DHT22;16389;50.126;8.450;2023-04-15T00:43:00;4.00;99.90
29413;DHT22;16389;50.126;8.450;2023-04-15T00:45:26;4.40;99.90
29413;DHT22;16389;50.126;8.450;2023-04-15T00:47:55;4.40;99.90
29413;DHT22;16389;50.126;8.450;2023-04-15T00:50:21;4.30;99.90
29413;DHT22;16389;50.126;8.450;2023-04-15T00:52:47;4.30;99.90
29413;DHT22;16389;50.126;8.450;2023-04-15T00:57:39;4.20;99.90
29413;DHT22;16389;50.126;8.450;2023-04-15T01:00:06;4.30;99.90
29413;DHT22;16389;50.126;8.450;2023-04-15T01:02:36;4.40;99.90
29413;DHT22;16389;50.126;8.450;2023-04-15T01:05:02;4.40;99.90
29413;DHT22;16389;50.126;8.450;2023-04-15T01:07:29;4.50;99.90
29413;DHT22;16389;50.126;8.450;2023-04-15T01:09:54;4.40;99.90
29413;DHT22;16389;50.126;8.450;2023-04-15T01:14:46;4.60;99.90
29413;DHT22;16389;50.126;8.450;2023-04-15T01:17:12;4.60;99.90
29413;DHT22;16389;50.126;8.450;2023-04-15T01:19:37;4.60;99.90
29413;DHT22;16389;50.126;8.450;2023-04-15T01:22:04;4.60;99.90
29413;DHT22;16389;50.126;8.450;2023-04-15T01:24:31;4.60;99.90
29413;DHT22;16389;50.126;8.450;2023-04-15T01:29:25;4.50;99.90
29413;DHT22;16389;50.126;8.450;2023-04-15T01:31:53;4.50;99.90
29413;DHT22;16389;50.126;8.450;2023-04-15T01:34:20;4.50;99.90
29413;DHT22;16389;50.126;8.450;2023-04-15T01:36:47;4.30;99.90
29413;DHT22;16389;50.126;8.450;2023-04-15T01:39:12;4.20;99.90
29413;DHT22;16389;50.126;8.450;2023-04-15T01:41:38;4.10;99.90
29413;DHT22;16389;50.126;8.450;2023-04-15T01:44:05;4.00;99.90
29413;DHT22;16389;50.126;8.450;2023-04-15T01:46:31;4.00;99.90
29413;DHT22;16389;50.126;8.450;2023-04-15T01:48:57;3.90;99.90
29413;DHT22;16389;50.126;8.450;2023-04-15T01:51:22;3.90;99.90
29413;DHT22;16389;50.126;8.450;2023-04-15T01:53:48;3.80;99.90
29413;DHT22;16389;50.126;8.450;2023-04-15T01:56:14;3.90;99.90
29413;DHT22;16389;50.126;8.450;2023-04-15T01:58:40;4.00;99.90
29413;DHT22;16389;50.126;8.450;2023-04-15T02:01:06;4.00;99.90
29413;DHT22;16389;50.126;8.450;2023-04-15T02:03:32;3.90;99.90
29413;DHT22;16389;50.126;8.450;2023-04-15T02:05:58;4.00;99.90
29413;DHT22;16389;50.126;8.450;2023-04-15T02:08:24;4.10;99.90
29413;DHT22;16389;50.126;8.450;2023-04-15T02:10:49;4.10;99.90
29413;DHT22;16389;50.126;8.450;2023-04-15T02:13:15;4.10;99.90
29413;DHT22;16389;50.126;8.450;2023-04-15T02:15:46;4.20;99.90
29413;DHT22;16389;50.126;8.450;2023-04-15T02:18:12;4.20;99.90
29413;DHT22;16389;50.126;8.450;2023-04-15T02:20:37;4.10;99.90
29413;DHT22;16389;50.126;8.450;2023-04-15T02:23:03;4.00;99.90
29413;DHT22;16389;50.126;8.450;2023-04-15T02:25:31;4.00;99.90
29413;DHT22;16389;50.126;8.450;2023-04-15T02:27:57;4.10;99.90
29413;DHT22;16389;50.126;8.450;2023-04-15T02:30:22;4.10;99.90
29413;DHT22;16389;50.126;8.450;2023-04-15T02:32:49;4.00;99.90
29413;DHT22;16389;50.126;8.450;2023-04-15T02:35:15;4.00;99.90
29413;DHT22;16389;50.126;8.450;2023-04-15T02:37:43;4.00;99.90
29413;DHT22;16389;50.126;8.450;2023-04-15T02:40:10;3.90;99.90
29413;DHT22;16389;50.126;8.450;2023-04-15T02:42:38;3.90;99.90
29413;DHT22;16389;50.126;8.450;2023-04-15T02:45:04;3.70;99.90
29413;DHT22;16389;50.126;8.450;2023-04-15T02:47:31;3.60;99.90
29413;DHT22;16389;50.126;8.450;2023-04-15T02:49:56;3.60;99.90
29413;DHT22;16389;50.126;8.450;2023-04-15T02:52:24;3.50;99.90
29413;DHT22;16389;50.126;8.450;2023-04-15T02:54:50;3.60;99.90
29413;DHT22;16389;50.126;8.450;2023-04-15T02:57:16;3.50;99.90
29413;DHT22;16389;50.126;8.450;2023-04-15T02:59:41;3.50;99.90
29413;DHT22;16389;50.126;8.450;2023-04-15T03:02:07;3.40;99.90
29413;DHT22;16389;50.126;8.450;2023-04-15T03:04:33;3.40;99.90
29413;DHT22;16389;50.126;8.450;2023-04-15T03:06:59;3.40;99.90
29413;DHT22;16389;50.126;8.450;2023-04-15T03:09:25;3.40;99.90
29413;DHT22;16389;50.126;8.450;2023-04-15T03:11:51;3.40;99.90
29413;DHT22;16389;50.126;8.450;2023-04-15T03:14:19;3.40;99.90
29413;DHT22;16389;50.126;8.450;2023-04-15T03:16:44;3.40;99.90
29413;DHT22;16389;50.126;8.450;2023-04-15T03:19:10;3.30;99.90
29413;DHT22;16389;50.126;8.450;2023-04-15T03:21:35;3.30;99.90
29413;DHT22;16389;50.126;8.450;2023-04-15T03:24:01;3.20;99.90
29413;DHT22;16389;50.126;8.450;2023-04-15T03:26:30;3.20;99.90
29413;DHT22;16389;50.126;8.450;2023-04-15T03:28:56;3.20;99.90
29413;DHT22;16389;50.126;8.450;2023-04-15T03:31:22;3.30;99.90
29413;DHT22;16389;50.126;8.450;2023-04-15T03:33:48;3.30;99.90
29413;DHT22;16389;50.126;8.450;2023-04-15T03:36:14;3.30;99.90
29413;DHT22;16389;50.126;8.450;2023-04-15T03:38:41;3.30;99.90
29413;DHT22;16389;50.126;8.450;2023-04-15T03:41:07;3.20;99.90
29413;DHT22;16389;50.126;8.450;2023-04-15T03:43:32;3.20;99.90
29413;DHT22;16389;50.126;8.450;2023-04-15T03:45:58;3.20;99.90
29413;DHT22;16389;50.126;8.450;2023-04-15T03:48:24;3.20;99.90
29413;DHT22;16389;50.126;8.450;2023-04-15T03:50:49;3.20;99.90
29413;DHT22;16389;50.126;8.450;2023-04-15T03:53:15;3.20;99.90
29413;DHT22;16389;50.126;8.450;2023-04-15T03:55:41;3.20;99.90
29413;DHT22;16389;50.126;8.450;2023-04-15T03:58:06;3.30;99.90
29413;DHT22;16389;50.126;8.450;2023-04-15T04:00:32;3.30;99.90
29413;DHT22;16389;50.126;8.450;2023-04-15T04:02:57;3.30;99.90
29413;DHT22;16389;50.126;8.450;2023-04-15T04:05:23;3.30;99.90
29413;DHT22;16389;50.126;8.450;2023-04-15T04:07:49;3.30;99.90
29413;DHT22;16389;50.126;8.450;2023-04-15T04:10:15;3.30;99.90
29413;DHT22;16389;50.126;8.450;2023-04-15T04:12:40;3.30;99.90
29413;DHT22;16389;50.126;8.450;2023-04-15T04:15:06;3.30;99.90
29413;DHT22;16389;50.126;8.450;2023-04-15T04:17:33;3.30;99.90
29413;DHT22;16389;50.126;8.450;2023-04-15T04:19:58;3.30;99.90
29413;DHT22;16389;50.126;8.450;2023-04-15T04:22:24;3.20;99.90
29413;DHT22;16389;50.126;8.450;2023-04-15T04:24:50;3.20;99.90
29413;DHT22;16389;50.126;8.450;2023-04-15T04:27:15;3.30;99.90
29413;DHT22;16389;50.126;8.450;2023-04-15T04:29:41;3.30;99.90
29413;DHT22;16389;50.126;8.450;2023-04-15T04:32:07;3.30;99.90
29413;DHT22;16389;50.126;8.450;2023-04-15T04:34:32;3.20;99.90
29413;DHT22;16389;50.126;8.450;2023-04-15T04:36:58;3.20;99.90
29413;DHT22;16389;50.126;8.450;2023-04-15T04:39:24;3.20;99.90
29413;DHT22;16389;50.126;8.450;2023-04-15T04:41:49;3.20;99.90
29413;DHT22;16389;50.126;8.450;2023-04-15T04:44:16;3.30;99.90
29413;DHT22;16389;50.126;8.450;2023-04-15T04:46:43;3.30;99.90
29413;DHT22;16389;50.126;8.450;2023-04-15T04:49:09;3.30;99.90
29413;DHT22;16389;50.126;8.450;2023-04-15T04:51:34;3.40;99.90
29413;DHT22;16389;50.126;8.450;2023-04-15T04:54:00;3.40;99.90
29413;DHT22;16389;50.126;8.450;2023-04-15T04:56:26;3.50;99.90
29413;DHT22;16389;50.126;8.450;2023-04-15T04:58:52;3.60;99.90
29413;DHT22;16389;50.126;8.450;2023-04-15T05:01:17;3.60;99.90
29413;DHT22;16389;50.126;8.450;2023-04-15T05:03:43;3.70;99.90
29413;DHT22;16389;50.126;8.450;2023-04-15T05:06:09;3.70;99.90
29413;DHT22;16389;50.126;8.450;2023-04-15T05:08:35;3.80;99.90
29413;DHT22;16389;50.126;8.450;2023-04-15T05:11:01;3.80;99.90
29413;DHT22;16389;50.126;8.450;2023-04-15T05:13:27;3.90;99.90
29413;DHT22;16389;50.126;8.450;2023-04-15T05:15:54;4.00;99.90
29413;DHT22;16389;50.126;8.450;2023-04-15T05:18:20;3.90;99.90
29413;DHT22;16389;50.126;8.450;2023-04-15T05:20:45;4.00;99.90
29413;DHT22;16389;50.126;8.450;2023-04-15T05:23:11;4.10;99.90
29413;DHT22;16389;50.126;8.450;2023-04-15T05:25:37;4.10;99.90
29413;DHT22;16389;50.126;8.450;2023-04-15T05:28:02;4.20;99.90
29413;DHT22;16389;50.126;8.450;2023-04-15T05:30:28;4.30;99.90
29413;DHT22;16389;50.126;8.450;2023-04-15T05:32:53;4.30;99.90
29413;DHT22;16389;50.126;8.450;2023-04-15T05:35:19;4.40;99.90
29413;DHT22;16389;50.126;8.450;2023-04-15T05:37:45;4.50;99.90
29413;DHT22;16389;50.126;8.450;2023-04-15T05:40:11;4.60;99.90
29413;DHT22;16389;50.126;8.450;2023-04-15T05:42:36;4.70;99.90
29413;DHT22;16389;50.126;8.450;2023-04-15T05:45:03;4.70;99.90
29413;DHT22;16389;50.126;8.450;2023-04-15T05:47:30;4.80;99.90
29413;DHT22;16389;50.126;8.450;2023-04-15T05:49:56;4.90;99.90
29413;DHT22;16389;50.126;8.450;2023-04-15T05:52:23;5.00;99.90
29413;DHT22;16389;50.126;8.450;2023-04-15T05:54:49;5.10;99.90
29413;DHT22;16389;50.126;8.450;2023-04-15T05:57:15;5.10;99.90
29413;DHT22;16389;50.126;8.450;2023-04-15T05:59:40;5.40;99.90
29413;DHT22;16389;50.126;8.450;2023-04-15T06:02:07;5.40;99.90
29413;DHT22;16389;50.126;8.450;2023-04-15T06:04:34;5.50;99.90
29413;DHT22;16389;50.126;8.450;2023-04-15T06:06:59;5.60;99.90
29413;DHT22;16389;50.126;8.450;2023-04-15T06:09:25;5.70;99.90
29413;DHT22;16389;50.126;8.450;2023-04-15T06:11:51;5.80;99.90
29413;DHT22;16389;50.126;8.450;2023-04-15T06:14:17;6.00;99.90
29413;DHT22;16389;50.126;8.450;2023-04-15T06:16:42;6.10;99.90
29413;DHT22;16389;50.126;8.450;2023-04-15T06:19:08;6.20;99.90
29413;DHT22;16389;50.126;8.450;2023-04-15T06:21:34;6.30;99.90
29413;DHT22;16389;50.126;8.450;2023-04-15T06:23:59;6.40;99.90
29413;DHT22;16389;50.126;8.450;2023-04-15T06:26:26;6.50;99.90
29413;DHT22;16389;50.126;8.450;2023-04-15T06:28:52;6.60;99.90
29413;DHT22;16389;50.126;8.450;2023-04-15T06:31:18;6.70;99.90
29413;DHT22;16389;50.126;8.450;2023-04-15T06:33:44;6.80;99.90
29413;DHT22;16389;50.126;8.450;2023-04-15T06:36:09;6.90;99.90
29413;DHT22;16389;50.126;8.450;2023-04-15T06:38:35;7.20;99.90
29413;DHT22;16389;50.126;8.450;2023-04-15T06:41:02;7.20;99.90
29413;DHT22;16389;50.126;8.450;2023-04-15T06:43:28;7.40;99.90
29413;DHT22;16389;50.126;8.450;2023-04-15T06:45:54;7.40;99.90
29413;DHT22;16389;50.126;8.450;2023-04-15T06:48:19;7.50;99.90
29413;DHT22;16389;50.126;8.450;2023-04-15T06:50:45;7.50;99.90
29413;DHT22;16389;50.126;8.450;2023-04-15T06:53:10;7.60;99.90
29413;DHT22;16389;50.126;8.450;2023-04-15T06:55:36;7.60;99.90
29413;DHT22;16389;50.126;8.450;2023-04-15T06:58:02;7.70;99.90
29413;DHT22;16389;50.126;8.450;2023-04-15T07:00:27;7.80;99.90
29413;DHT22;16389;50.126;8.450;2023-04-15T07:02:53;7.80;99.90
29413;DHT22;16389;50.126;8.450;2023-04-15T07:05:19;7.80;99.90
29413;DHT22;16389;50.126;8.450;2023-04-15T07:07:45;7.80;99.90
29413;DHT22;16389;50.126;8.450;2023-04-15T07:10:11;7.90;99.90
29413;DHT22;16389;50.126;8.450;2023-04-15T07:12:37;8.00;99.90
29413;DHT22;16389;50.126;8.450;2023-04-15T07:15:03;8.10;99.90
29413;DHT22;16389;50.126;8.450;2023-04-15T07:17:29;8.10;99.90
29413;DHT22;16389;50.126;8.450;2023-04-15T07:19:55;8.30;99.90
29413;DHT22;16389;50.126;8.450;2023-04-15T07:22:20;8.40;99.90
29413;DHT22;16389;50.126;8.450;2023-04-15T07:24:46;8.60;99.90
29413;DHT22;16389;50.126;8.450;2023-04-15T07:27:12;8.70;99.90
29413;DHT22;16389;50.126;8.450;2023-04-15T07:29:37;8.90;99.90
29413;DHT22;16389;50.126;8.450;2023-04-15T07:32:03;9.10;99.90
29413;DHT22;16389;50.126;8.450;2023-04-15T07:34:29;9.30;99.90
29413;DHT22;16389;50.126;8.450;2023-04-15T07:36:55;9.50;99.90
29413;DHT22;16389;50.126;8.450;2023-04-15T07:39:20;9.80;99.90
29413;DHT22;16389;50.126;8.450;2023-04-15T07:41:46;10.00;99.90
29413;DHT22;16389;50.126;8.450;2023-04-15T07:44:13;10.00;99.90
29413;DHT22;16389;50.126;8.450;2023-04-15T07:46:39;10.20;99.90
29413;DHT22;16389;50.126;8.450;2023-04-15T07:49:04;10.30;99.90
29413;DHT22;16389;50.126;8.450;2023-04-15T07:51:30;10.50;99.90
29413;DHT22;16389;50.126;8.450;2023-04-15T07:53:56;10.70;99.90
29413;DHT22;16389;50.126;8.450;2023-04-15T07:56:22;11.00;99.90
29413;DHT22;16389;50.126;8.450;2023-04-15T07:58:47;11.20;99.90
29413;DHT22;16389;50.126;8.450;2023-04-15T08:01:13;11.40;99.90
29413;DHT22;16389;50.126;8.450;2023-04-15T08:03:39;11.80;99.90
29413;DHT22;16389;50.126;8.450;2023-04-15T08:06:05;11.90;99.90
29413;DHT22;16389;50.126;8.450;2023-04-15T08:08:31;11.90;99.90
29413;DHT22;16389;50.126;8.450;2023-04-15T08:10:57;11.80;99.90
29413;DHT22;16389;50.126;8.450;2023-04-15T08:13:23;11.80;99.90
29413;DHT22;16389;50.126;8.450;2023-04-15T08:16:21;11.80;99.90
29413;DHT22;16389;50.126;8.450;2023-04-15T08:18:49;11.80;99.90
29413;DHT22;16389;50.126;8.450;2023-04-15T08:21:16;12.00;99.90
29413;DHT22;16389;50.126;8.450;2023-04-15T08:23:43;12.00;99.90
29413;DHT22;16389;50.126;8.450;2023-04-15T08:26:08;12.20;99.90
29413;DHT22;16389;50.126;8.450;2023-04-15T08:28:35;12.40;99.90
29413;DHT22;16389;50.126;8.450;2023-04-15T08:31:04;12.70;99.90
29413;DHT22;16389;50.126;8.450;2023-04-15T08:33:30;12.90;99.90
29413;DHT22;16389;50.126;8.450;2023-04-15T08:35:55;12.90;99.90
29413;DHT22;16389;50.126;8.450;2023-04-15T08:38:22;12.90;99.90
29413;DHT22;16389;50.126;8.450;2023-04-15T08:40:48;12.90;99.90
29413;DHT22;16389;50.126;8.450;2023-04-15T08:43:39;12.80;99.90
29413;DHT22;16389;50.126;8.450;2023-04-15T08:46:08;12.90;99.90
29413;DHT22;16389;50.126;8.450;2023-04-15T08:48:37;12.90;99.90
29413;DHT22;16389;50.126;8.450;2023-04-15T08:51:05;13.10;99.90
29413;DHT22;16389;50.126;8.450;2023-04-15T08:53:31;13.40;99.90
29413;DHT22;16389;50.126;8.450;2023-04-15T08:55:57;13.60;99.90
29413;DHT22;16389;50.126;8.450;2023-04-15T08:58:23;13.70;99.90
29413;DHT22;16389;50.126;8.450;2023-04-15T09:00:49;13.80;99.90
29413;DHT22;16389;50.126;8.450;2023-04-15T09:03:15;14.00;99.90
29413;DHT22;16389;50.126;8.450;2023-04-15T09:05:42;14.30;99.90
29413;DHT22;16389;50.126;8.450;2023-04-15T09:08:07;14.40;99.00
29413;DHT22;16389;50.126;8.450;2023-04-15T09:10:33;14.50;96.90
29413;DHT22;16389;50.126;8.450;2023-04-15T09:13:13;14.60;95.90
29413;DHT22;16389;50.126;8.450;2023-04-15T09:15:39;14.50;93.10
29413;DHT22;16389;50.126;8.450;2023-04-15T09:18:05;14.10;91.80
29413;DHT22;16389;50.126;8.450;2023-04-15T09:20:39;14.00;90.80
29413;DHT22;16389;50.126;8.450;2023-04-15T09:23:12;14.00;88.40
29413;DHT22;16389;50.126;8.450;2023-04-15T09:25:39;14.00;89.70
29413;DHT22;16389;50.126;8.450;2023-04-15T09:28:07;14.20;88.00
29413;DHT22;16389;50.126;8.450;2023-04-15T09:30:33;14.40;90.10
29413;DHT22;16389;50.126;8.450;2023-04-15T09:33:01;14.60;86.30
29413;DHT22;16389;50.126;8.450;2023-04-15T09:35:27;14.70;86.90
29413;DHT22;16389;50.126;8.450;2023-04-15T09:38:02;14.90;89.60
29413;DHT22;16389;50.126;8.450;2023-04-15T09:40:35;15.30;87.60
29413;DHT22;16389;50.126;8.450;2023-04-15T09:43:03;15.60;90.20
29413;DHT22;16389;50.126;8.450;2023-04-15T09:45:30;15.90;88.40
29413;DHT22;16389;50.126;8.450;2023-04-15T09:50:42;15.70;86.50
29413;DHT22;16389;50.126;8.450;2023-04-15T09:53:09;15.40;86.50
29413;DHT22;16389;50.126;8.450;2023-04-15T09:55:36;15.30;86.80
29413;DHT22;16389;50.126;8.450;2023-04-15T09:58:07;15.20;88.00
29413;DHT22;16389;50.126;8.450;2023-04-15T10:00:33;15.10;89.00
29413;DHT22;16389;50.126;8.450;2023-04-15T10:02:59;14.80;85.90
29413;DHT22;16389;50.126;8.450;2023-04-15T10:05:24;14.50;87.90
29413;DHT22;16389;50.126;8.450;2023-04-15T10:07:50;14.30;88.60
29413;DHT22;16389;50.126;8.450;2023-04-15T10:10:17;14.20;89.90
29413;DHT22;16389;50.126;8.450;2023-04-15T10:12:43;13.90;89.10
29413;DHT22;16389;50.126;8.450;2023-04-15T10:15:14;13.90;88.70
29413;DHT22;16389;50.126;8.450;2023-04-15T10:17:43;13.70;88.90
29413;DHT22;16389;50.126;8.450;2023-04-15T10:20:09;13.60;90.70
29413;DHT22;16389;50.126;8.450;2023-04-15T10:22:37;13.40;90.00
29413;DHT22;16389;50.126;8.450;2023-04-15T10:25:05;13.20;89.00
29413;DHT22;16389;50.126;8.450;2023-04-15T10:27:31;13.10;90.40
29413;DHT22;16389;50.126;8.450;2023-04-15T10:29:59;13.10;91.00
29413;DHT22;16389;50.126;8.450;2023-04-15T10:32:26;13.10;91.00
29413;DHT22;16389;50.126;8.450;2023-04-15T10:34:52;13.10;91.70
29413;DHT22;16389;50.126;8.450;2023-04-15T10:37:35;13.20;92.40
29413;DHT22;16389;50.126;8.450;2023-04-15T10:40:22;13.20;92.50
29413;DHT22;16389;50.126;8.450;2023-04-15T10:42:48;13.10;91.90
29413;DHT22;16389;50.126;8.450;2023-04-15T10:45:18;13.20;93.00
29413;DHT22;16389;50.126;8.450;2023-04-15T10:47:43;13.20;92.20
29413;DHT22;16389;50.126;8.450;2023-04-15T10:50:09;13.20;92.70
29413;DHT22;16389;50.126;8.450;2023-04-15T10:52:39;13.40;93.30
29413;DHT22;16389;50.126;8.450;2023-04-15T10:55:17;13.60;92.90
29413;DHT22;16389;50.126;8.450;2023-04-15T10:57:44;13.80;93.30
29413;DHT22;16389;50.126;8.450;2023-04-15T11:00:16;13.80;92.60
29413;DHT22;16389;50.126;8.450;2023-04-15T11:03:04;13.90;92.30
29413;DHT22;16389;50.126;8.450;2023-04-15T11:05:50;13.90;92.20
29413;DHT22;16389;50.126;8.450;2023-04-15T11:08:16;14.10;92.10
29413;DHT22;16389;50.126;8.450;2023-04-15T11:15:48;14.20;91.50
29413;DHT22;16389;50.126;8.450;2023-04-15T11:18:22;14.30;92.10
29413;DHT22;16389;50.126;8.450;2023-04-15T11:20:59;14.10;91.80
29413;DHT22;16389;50.126;8.450;2023-04-15T11:26:03;14.10;92.30
29413;DHT22;16389;50.126;8.450;2023-04-15T11:28:34;14.30;92.40
29413;DHT22;16389;50.126;8.450;2023-04-15T11:31:12;14.40;92.50
29413;DHT22;16389;50.126;8.450;2023-04-15T11:33:56;14.50;93.50
29413;DHT22;16389;50.126;8.450;2023-04-15T11:36:28;15.00;93.10
29413;DHT22;16389;50.126;8.450;2023-04-15T11:38:54;15.60;92.60
29413;DHT22;16389;50.126;8.450;2023-04-15T11:41:21;16.10;92.60
29413;DHT22;16389;50.126;8.450;2023-04-15T11:43:47;16.10;93.10
29413;DHT22;16389;50.126;8.450;2023-04-15T11:46:13;16.00;92.50
29413;DHT22;16389;50.126;8.450;2023-04-15T11:48:42;15.50;93.40
29413;DHT22;16389;50.126;8.450;2023-04-15T11:51:09;15.20;93.70
29413;DHT22;16389;50.126;8.450;2023-04-15T11:53:46;14.50;95.20
29413;DHT22;16389;50.126;8.450;2023-04-15T11:56:23;14.20;97.50
29413;DHT22;16389;50.126;8.450;2023-04-15T11:58:58;13.70;98.40
29413;DHT22;16389;50.126;8.450;2023-04-15T12:01:42;13.50;99.90
29413;DHT22;16389;50.126;8.450;2023-04-15T12:04:12;13.20;99.90
29413;DHT22;16389;50.126;8.450;2023-04-15T12:06:38;12.90;99.90
29413;DHT22;16389;50.126;8.450;2023-04-15T12:09:11;12.80;99.90
29413;DHT22;16389;50.126;8.450;2023-04-15T12:14:28;12.40;99.90
29413;DHT22;16389;50.126;8.450;2023-04-15T12:16:58;12.30;99.90
29413;DHT22;16389;50.126;8.450;2023-04-15T12:19:38;12.30;99.90
29413;DHT22;16389;50.126;8.450;2023-04-15T12:22:08;12.30;99.90
29413;DHT22;16389;50.126;8.450;2023-04-15T12:24:36;12.40;99.90
29413;DHT22;16389;50.126;8.450;2023-04-15T12:27:12;12.40;99.90
29413;DHT22;16389;50.126;8.450;2023-04-15T12:29:39;12.80;99.90
29413;DHT22;16389;50.126;8.450;2023-04-15T12:32:10;13.50;99.90
29413;DHT22;16389;50.126;8.450;2023-04-15T12:34:38;14.00;99.90
29413;DHT22;16389;50.126;8.450;2023-04-15T12:37:05;13.90;99.90
29413;DHT22;16389;50.126;8.450;2023-04-15T12:39:34;14.30;99.90
29413;DHT22;16389;50.126;8.450;2023-04-15T12:42:01;14.60;99.90
29413;DHT22;16389;50.126;8.450;2023-04-15T12:44:27;14.70;99.90
29413;DHT22;16389;50.126;8.450;2023-04-15T12:46:53;14.50;99.90
29413;DHT22;16389;50.126;8.450;2023-04-15T12:49:20;14.10;99.90
29413;DHT22;16389;50.126;8.450;2023-04-15T12:51:50;13.90;99.90
29413;DHT22;16389;50.126;8.450;2023-04-15T12:54:17;13.40;99.90
29413;DHT22;16389;50.126;8.450;2023-04-15T12:56:44;13.30;99.90
29413;DHT22;16389;50.126;8.450;2023-04-15T12:59:11;12.90;99.90
29413;DHT22;16389;50.126;8.450;2023-04-15T13:01:37;12.70;99.90
29413;DHT22;16389;50.126;8.450;2023-04-15T13:04:03;12.60;99.90
29413;DHT22;16389;50.126;8.450;2023-04-15T13:06:29;12.50;99.90
29413;DHT22;16389;50.126;8.450;2023-04-15T13:08:57;12.40;99.90
29413;DHT22;16389;50.126;8.450;2023-04-15T13:11:24;12.20;99.90
29413;DHT22;16389;50.126;8.450;2023-04-15T13:13:50;12.10;99.90
29413;DHT22;16389;50.126;8.450;2023-04-15T13:16:19;11.90;99.90
29413;DHT22;16389;50.126;8.450;2023-04-15T13:18:50;11.90;99.90
29413;DHT22;16389;50.126;8.450;2023-04-15T13:21:17;11.80;99.90
29413;DHT22;16389;50.126;8.450;2023-04-15T13:23:43;11.70;99.90
29413;DHT22;16389;50.126;8.450;2023-04-15T13:26:09;11.80;99.90
29413;DHT22;16389;50.126;8.450;2023-04-15T13:28:34;11.50;99.90
29413;DHT22;16389;50.126;8.450;2023-04-15T13:31:00;11.70;99.90
29413;DHT22;16389;50.126;8.450;2023-04-15T13:33:26;11.60;99.90
29413;DHT22;16389;50.126;8.450;2023-04-15T13:35:52;11.30;99.90
29413;DHT22;16389;50.126;8.450;2023-04-15T13:38:18;11.20;99.90
29413;DHT22;16389;50.126;8.450;2023-04-15T13:40:44;11.20;99.90
29413;DHT22;16389;50.126;8.450;2023-04-15T13:43:09;11.10;99.90
29413;DHT22;16389;50.126;8.450;2023-04-15T13:45:36;11.10;99.90
29413;DHT22;16389;50.126;8.450;2023-04-15T13:48:01;11.20;99.90
29413;DHT22;16389;50.126;8.450;2023-04-15T13:50:27;11.20;99.90
29413;DHT22;16389;50.126;8.450;2023-04-15T13:52:53;11.40;99.90
29413;DHT22;16389;50.126;8.450;2023-04-15T13:55:18;11.30;99.90
29413;DHT22;16389;50.126;8.450;2023-04-15T13:57:44;11.30;99.90
29413;DHT22;16389;50.126;8.450;2023-04-15T14:00:10;11.20;99.90
29413;DHT22;16389;50.126;8.450;2023-04-15T14:02:36;11.10;99.90
29413;DHT22;16389;50.126;8.450;2023-04-15T14:05:02;11.10;99.90
29413;DHT22;16389;50.126;8.450;2023-04-15T14:07:29;11.20;99.90
29413;DHT22;16389;50.126;8.450;2023-04-15T14:09:55;11.40;99.90
29413;DHT22;16389;50.126;8.450;2023-04-15T14:12:21;11.40;99.90
29413;DHT22;16389;50.126;8.450;2023-04-15T14:14:47;11.50;99.90
29413;DHT22;16389;50.126;8.450;2023-04-15T14:17:12;11.40;99.90
29413;DHT22;16389;50.126;8.450;2023-04-15T14:19:38;11.30;99.90
29413;DHT22;16389;50.126;8.450;2023-04-15T14:22:04;11.20;99.90
29413;DHT22;16389;50.126;8.450;2023-04-15T14:24:29;11.00;99.90
29413;DHT22;16389;50.126;8.450;2023-04-15T14:26:55;11.00;99.90
29413;DHT22;16389;50.126;8.450;2023-04-15T14:29:21;11.00;99.90
29413;DHT22;16389;50.126;8.450;2023-04-15T14:31:48;10.90;99.90
29413;DHT22;16389;50.126;8.450;2023-04-15T14:34:16;10.90;99.90
29413;DHT22;16389;50.126;8.450;2023-04-15T14:36:42;10.90;99.90
29413;DHT22;16389;50.126;8.450;2023-04-15T14:39:09;10.80;99.90
29413;DHT22;16389;50.126;8.450;2023-04-15T14:41:35;10.70;99.90
29413;DHT22;16389;50.126;8.450;2023-04-15T14:44:02;10.60;99.90
29413;DHT22;16389;50.126;8.450;2023-04-15T14:46:27;10.60;99.90
29413;DHT22;16389;50.126;8.450;2023-04-15T14:48:53;10.60;99.90
29413;DHT22;16389;50.126;8.450;2023-04-15T14:51:19;10.50;99.90
29413;DHT22;16389;50.126;8.450;2023-04-15T14:53:45;10.40;99.90
29413;DHT22;16389;50.126;8.450;2023-04-15T14:56:10;10.30;99.90
29413;DHT22;16389;50.126;8.450;2023-04-15T14:58:36;10.30;99.90
29413;DHT22;16389;50.126;8.450;2023-04-15T15:01:02;10.20;99.90
29413;DHT22;16389;50.126;8.450;2023-04-15T15:03:28;10.30;99.90
29413;DHT22;16389;50.126;8.450;2023-04-15T15:05:54;10.30;99.90
29413;DHT22;16389;50.126;8.450;2023-04-15T15:08:21;10.20;99.90
29413;DHT22;16389;50.126;8.450;2023-04-15T15:10:47;10.20;99.90
29413;DHT22;16389;50.126;8.450;2023-04-15T15:13:13;10.20;99.90
29413;DHT22;16389;50.126;8.450;2023-04-15T15:15:38;10.20;99.90
29413;DHT22;16389;50.126;8.450;2023-04-15T15:18:04;10.20;99.90
29413;DHT22;16389;50.126;8.450;2023-04-15T15:20:30;10.20;99.90
29413;DHT22;16389;50.126;8.450;2023-04-15T15:22:57;10.20;99.90
29413;DHT22;16389;50.126;8.450;2023-04-15T15:25:22;10.20;99.90
29413;DHT22;16389;50.126;8.450;2023-04-15T15:27:48;10.20;99.90
29413;DHT22;16389;50.126;8.450;2023-04-15T15:30:14;10.30;99.90
29413;DHT22;16389;50.126;8.450;2023-04-15T15:32:40;10.40;99.90
29413;DHT22;16389;50.126;8.450;2023-04-15T15:35:06;10.40;99.90
29413;DHT22;16389;50.126;8.450;2023-04-15T15:37:32;10.30;99.90
29413;DHT22;16389;50.126;8.450;2023-04-15T15:39:59;10.20;99.90
29413;DHT22;16389;50.126;8.450;2023-04-15T15:42:25;10.20;99.90
29413;DHT22;16389;50.126;8.450;2023-04-15T15:44:51;10.10;99.90
29413;DHT22;16389;50.126;8.450;2023-04-15T15:47:18;10.10;99.90
29413;DHT22;16389;50.126;8.450;2023-04-15T15:49:45;9.80;99.90
29413;DHT22;16389;50.126;8.450;2023-04-15T15:52:11;9.80;99.90
29413;DHT22;16389;50.126;8.450;2023-04-15T15:54:38;9.70;99.90
29413;DHT22;16389;50.126;8.450;2023-04-15T15:57:03;9.70;99.90
29413;DHT22;16389;50.126;8.450;2023-04-15T15:59:29;9.60;99.90